createdAt,value
2023-05-08T00:00:00.325Z,1002.13
2023-05-08T00:01:00.277Z,1002.11
2023-05-08T00:02:00.307Z,1002.11
2023-05-08T00:03:00.410Z,1002.11
2023-05-08T00:04:00.432Z,1002.11
2023-05-08T00:05:00.329Z,1002.12
2023-05-08T00:06:00.246Z,1002.12
2023-05-08T00:07:00.265Z,1002.12
2023-05-08T00:08:00.227Z,1002.10
2023-05-08T00:09:00.188Z,1002.09
2023-05-08T00:10:00.235Z,1002.08
2023-05-08T00:11:00.167Z,1002.08
2023-05-08T00:12:00.188Z,1002.08
2023-05-08T00:13:00.214Z,1002.07
2023-05-08T00:14:00.166Z,1002.07
2023-05-08T00:15:00.176Z,1002.08
2023-05-08T00:16:00.146Z,1002.10
2023-05-08T00:17:00.191Z,1002.09
2023-05-08T00:18:00.223Z,1002.10
2023-05-08T00:19:00.152Z,1002.10
2023-05-08T00:20:00.178Z,1002.10
2023-05-08T00:21:00.132Z,1002.09
2023-05-08T00:22:00.133Z,1002.09
2023-05-08T00:23:00.073Z,1002.07
2023-05-08T00:24:00.049Z,1002.08
2023-05-08T00:25:00.023Z,1002.07
2023-05-08T00:26:00.068Z,1002.07
2023-05-08T00:27:00.036Z,1002.08
2023-05-08T00:28:00.010Z,1002.09
2023-05-08T00:29:00.016Z,1002.08
2023-05-08T00:29:59.985Z,1002.07
2023-05-08T00:31:00.321Z,1002.06
2023-05-08T00:32:00.048Z,1002.04
2023-05-08T00:32:59.966Z,1002.05
2023-05-08T00:33:59.973Z,1002.04
2023-05-08T00:34:59.916Z,1002.03
2023-05-08T00:35:59.921Z,1002.03
2023-05-08T00:36:59.892Z,1002.03
2023-05-08T00:37:59.902Z,1002.04
2023-05-08T00:38:59.895Z,1002.04
2023-05-08T00:39:59.902Z,1002.03
2023-05-08T00:40:59.892Z,1002.04
2023-05-08T00:41:59.864Z,1002.05
2023-05-08T00:42:59.824Z,1002.05
2023-05-08T00:43:59.847Z,1002.04
2023-05-08T00:44:59.841Z,1002.04
2023-05-08T00:45:59.894Z,1002.04
2023-05-08T00:47:00.106Z,1002.03
2023-05-08T00:47:59.843Z,1002.03
2023-05-08T00:48:59.762Z,1002.02
2023-05-08T00:49:59.790Z,1002.01
2023-05-08T00:50:59.747Z,1002.00
2023-05-08T00:51:59.754Z,1002.00
2023-05-08T00:52:59.760Z,1001.99
2023-05-08T00:54:00.811Z,1001.99
2023-05-08T00:54:59.717Z,1002.00
2023-05-08T00:55:59.746Z,1002.00
2023-05-08T00:56:59.705Z,1002.01
2023-05-08T00:57:59.719Z,1002.02
2023-05-08T00:58:59.664Z,1002.03
2023-05-08T00:59:59.671Z,1002.03
2023-05-08T01:00:59.823Z,1002.02
2023-05-08T01:01:59.804Z,1002.02
2023-05-08T01:02:59.741Z,1002.02
2023-05-08T01:03:59.645Z,1002.03
2023-05-08T01:04:59.593Z,1002.03
2023-05-08T01:05:59.638Z,1002.04
2023-05-08T01:06:59.573Z,1002.04
2023-05-08T01:07:59.606Z,1002.04
2023-05-08T01:08:59.570Z,1002.03
2023-05-08T01:09:59.570Z,1002.03
2023-05-08T01:10:59.560Z,1002.03
2023-05-08T01:11:59.563Z,1002.01
2023-05-08T01:12:59.556Z,1002.00
2023-05-08T01:13:59.579Z,1002.00
2023-05-08T01:14:59.498Z,1002.00
2023-05-08T01:15:59.524Z,1001.99
2023-05-08T01:16:59.477Z,1001.98
2023-05-08T01:17:59.517Z,1001.99
2023-05-08T01:18:59.807Z,1001.99
2023-05-08T01:19:59.480Z,1002.00
2023-05-08T01:20:59.425Z,1002.01
2023-05-08T01:21:59.458Z,1002.01
2023-05-08T01:22:59.416Z,1002.03
2023-05-08T01:23:59.461Z,1002.03
2023-05-08T01:24:59.398Z,1002.04
2023-05-08T01:25:59.411Z,1002.04
2023-05-08T01:26:59.369Z,1002.05
2023-05-08T01:27:59.404Z,1002.05
2023-05-08T01:28:59.380Z,1002.05
2023-05-08T01:29:59.376Z,1002.05
2023-05-08T01:30:59.333Z,1002.04
2023-05-08T01:31:59.389Z,1002.04
2023-05-08T01:32:59.361Z,1002.04
2023-05-08T01:33:59.356Z,1002.05
2023-05-08T01:34:59.344Z,1002.06
2023-05-08T01:35:59.311Z,1002.07
2023-05-08T01:36:59.313Z,1002.07
2023-05-08T01:37:59.303Z,1002.06
2023-05-08T01:38:59.270Z,1002.05
2023-05-08T01:39:59.276Z,1002.05
2023-05-08T01:40:59.239Z,1002.04
2023-05-08T01:41:59.268Z,1002.04
2023-05-08T01:42:59.225Z,1002.05
2023-05-08T01:43:59.217Z,1002.05
2023-05-08T01:44:59.186Z,1002.05
2023-05-08T01:45:59.210Z,1002.05
2023-05-08T01:46:59.376Z,1002.05
2023-05-08T01:47:59.210Z,1002.05
2023-05-08T01:48:59.165Z,1002.05
2023-05-08T01:49:59.158Z,1002.06
2023-05-08T01:50:59.150Z,1002.06
2023-05-08T01:51:59.182Z,1002.06
2023-05-08T01:52:59.105Z,1002.06
2023-05-08T01:53:59.120Z,1002.06
2023-05-08T01:54:59.091Z,1002.04
2023-05-08T01:55:59.109Z,1002.04
2023-05-08T01:56:59.071Z,1002.03
2023-05-08T01:57:59.125Z,1002.03
2023-05-08T01:58:59.051Z,1002.04
2023-05-08T01:59:59.068Z,1002.05
2023-05-08T02:00:59.061Z,1002.06
2023-05-08T02:01:59.094Z,1002.06
2023-05-08T02:02:59.185Z,1002.06
2023-05-08T02:03:59.124Z,1002.06
2023-05-08T02:04:58.991Z,1002.05
2023-05-08T02:05:58.999Z,1002.05
2023-05-08T02:06:58.966Z,1002.06
2023-05-08T02:07:58.976Z,1002.06
2023-05-08T02:08:59.016Z,1002.05
2023-05-08T02:09:58.987Z,1002.06
2023-05-08T02:10:58.933Z,1002.07
2023-05-08T02:11:58.964Z,1002.07
2023-05-08T02:12:58.961Z,1002.06
2023-05-08T02:13:58.917Z,1002.06
2023-05-08T02:14:58.874Z,1002.06
2023-05-08T02:15:58.890Z,1002.06
2023-05-08T02:16:58.957Z,1002.06
2023-05-08T02:17:58.916Z,1002.06
2023-05-08T02:18:58.831Z,1002.05
2023-05-08T02:19:58.859Z,1002.04
2023-05-08T02:20:58.814Z,1002.04
2023-05-08T02:21:58.862Z,1002.04
2023-05-08T02:22:58.784Z,1002.04
2023-05-08T02:23:58.834Z,1002.05
2023-05-08T02:24:58.815Z,1002.05
2023-05-08T02:25:58.801Z,1002.04
2023-05-08T02:26:58.753Z,1002.04
2023-05-08T02:27:58.778Z,1002.05
2023-05-08T02:28:58.727Z,1002.05
2023-05-08T02:29:58.779Z,1002.06
2023-05-08T02:30:58.724Z,1002.07
2023-05-08T02:31:58.773Z,1002.07
2023-05-08T02:33:00.620Z,1002.07
2023-05-08T02:33:58.704Z,1002.06
2023-05-08T02:35:03.267Z,1002.06
2023-05-08T02:35:58.678Z,1002.07
2023-05-08T02:36:58.655Z,1002.07
2023-05-08T02:37:58.676Z,1002.06
2023-05-08T02:38:58.625Z,1002.06
2023-05-08T02:39:58.686Z,1002.06
2023-05-08T02:40:58.602Z,1002.06
2023-05-08T02:41:58.623Z,1002.07
2023-05-08T02:42:58.593Z,1002.08
2023-05-08T02:43:58.601Z,1002.09
2023-05-08T02:44:58.571Z,1002.09
2023-05-08T02:45:58.637Z,1002.09
2023-05-08T02:46:58.551Z,1002.08
2023-05-08T02:47:58.644Z,1002.09
2023-05-08T02:48:58.512Z,1002.08
2023-05-08T02:49:58.535Z,1002.10
2023-05-08T02:50:58.507Z,1002.12
2023-05-08T02:51:58.543Z,1002.13
2023-05-08T02:52:58.475Z,1002.14
2023-05-08T02:53:58.492Z,1002.14
2023-05-08T02:54:58.463Z,1002.15
2023-05-08T02:55:58.491Z,1002.14
2023-05-08T02:56:58.453Z,1002.13
2023-05-08T02:57:58.455Z,1002.13
2023-05-08T02:58:58.407Z,1002.12
2023-05-08T02:59:58.422Z,1002.13
2023-05-08T03:00:58.405Z,1002.12
2023-05-08T03:01:58.443Z,1002.13
2023-05-08T03:02:58.466Z,1002.12
2023-05-08T03:03:58.539Z,1002.12
2023-05-08T03:04:58.348Z,1002.12
2023-05-08T03:05:58.364Z,1002.12
2023-05-08T03:06:58.348Z,1002.11
2023-05-08T03:07:58.317Z,1002.09
2023-05-08T03:08:58.708Z,1002.09
2023-05-08T03:09:58.315Z,1002.09
2023-05-08T03:10:58.315Z,1002.08
2023-05-08T03:11:58.280Z,1002.08
2023-05-08T03:12:58.249Z,1002.08
2023-05-08T03:13:58.775Z,1002.09
2023-05-08T03:14:58.275Z,1002.08
2023-05-08T03:15:58.265Z,1002.08
2023-05-08T03:16:58.214Z,1002.08
2023-05-08T03:17:58.238Z,1002.07
2023-05-08T03:18:58.691Z,1002.07
2023-05-08T03:19:58.187Z,1002.07
2023-05-08T03:20:58.207Z,1002.06
2023-05-08T03:21:58.187Z,1002.06
2023-05-08T03:22:58.147Z,1002.05
2023-05-08T03:23:58.695Z,1002.05
2023-05-08T03:24:58.114Z,1002.04
2023-05-08T03:25:58.094Z,1002.03
2023-05-08T03:26:58.107Z,1002.04
2023-05-08T03:27:58.098Z,1002.04
2023-05-08T03:28:58.076Z,1002.04
2023-05-08T03:29:58.059Z,1002.04
2023-05-08T03:30:58.078Z,1002.04
2023-05-08T03:31:58.038Z,1002.04
2023-05-08T03:32:58.050Z,1002.03
2023-05-08T03:33:58.003Z,1002.03
2023-05-08T03:34:58.015Z,1002.03
2023-05-08T03:35:57.989Z,1002.03
2023-05-08T03:36:58.023Z,1002.01
2023-05-08T03:37:57.956Z,1002.01
2023-05-08T03:38:57.967Z,1002.03
2023-05-08T03:39:57.943Z,1002.04
2023-05-08T03:40:57.968Z,1002.04
2023-05-08T03:41:57.954Z,1002.03
2023-05-08T03:42:57.941Z,1002.03
2023-05-08T03:43:57.897Z,1002.03
2023-05-08T03:44:57.913Z,1002.02
2023-05-08T03:45:57.893Z,1002.01
2023-05-08T03:46:57.950Z,1002.01
2023-05-08T03:47:57.895Z,1002.01
2023-05-08T03:48:57.895Z,1002.01
2023-05-08T03:49:57.834Z,1002.00
2023-05-08T03:50:57.841Z,1002.00
2023-05-08T03:51:57.810Z,1002.01
2023-05-08T03:52:57.868Z,1002.01
2023-05-08T03:53:57.834Z,1002.02
2023-05-08T03:54:57.797Z,1002.01
2023-05-08T03:55:57.777Z,1002.01
2023-05-08T03:56:57.790Z,1002.01
2023-05-08T03:57:57.755Z,1002.01
2023-05-08T03:58:57.784Z,1002.00
2023-05-08T03:59:57.785Z,1002.00
2023-05-08T04:00:57.745Z,1002.00
2023-05-08T04:01:57.755Z,1002.01
2023-05-08T04:02:57.930Z,1002.00
2023-05-08T04:03:57.704Z,1002.01
2023-05-08T04:04:57.752Z,1002.01
2023-05-08T04:05:57.674Z,1002.01
2023-05-08T04:06:57.712Z,1002.03
2023-05-08T04:07:57.666Z,1002.04
2023-05-08T04:08:57.660Z,1002.04
2023-05-08T04:09:57.629Z,1002.06
2023-05-08T04:10:57.685Z,1002.06
2023-05-08T04:11:57.654Z,1002.07
2023-05-08T04:12:57.651Z,1002.08
2023-05-08T04:13:57.594Z,1002.08
2023-05-08T04:14:57.593Z,1002.09
2023-05-08T04:15:57.600Z,1002.10
2023-05-08T04:16:57.652Z,1002.09
2023-05-08T04:17:57.610Z,1002.10
2023-05-08T04:18:57.550Z,1002.11
2023-05-08T04:19:57.538Z,1002.11
2023-05-08T04:20:57.537Z,1002.12
2023-05-08T04:21:57.501Z,1002.12
2023-05-08T04:22:57.583Z,1002.12
2023-05-08T04:23:57.478Z,1002.11
2023-05-08T04:24:57.515Z,1002.11
2023-05-08T04:25:57.464Z,1002.10
2023-05-08T04:26:57.483Z,1002.09
2023-05-08T04:27:57.465Z,1002.11
2023-05-08T04:28:57.484Z,1002.11
2023-05-08T04:29:57.457Z,1002.12
2023-05-08T04:30:57.460Z,1002.14
2023-05-08T04:31:57.444Z,1002.15
2023-05-08T04:32:57.441Z,1002.16
2023-05-08T04:33:57.385Z,1002.17
2023-05-08T04:34:57.434Z,1002.18
2023-05-08T04:35:57.402Z,1002.19
2023-05-08T04:36:57.379Z,1002.19
2023-05-08T04:37:57.355Z,1002.19
2023-05-08T04:38:59.007Z,1002.19
2023-05-08T04:39:57.316Z,1002.20
2023-05-08T04:40:57.375Z,1002.22
2023-05-08T04:41:57.303Z,1002.22
2023-05-08T04:42:57.328Z,1002.23
2023-05-08T04:43:57.285Z,1002.23
2023-05-08T04:44:57.295Z,1002.23
2023-05-08T04:45:57.323Z,1002.23
2023-05-08T04:46:57.277Z,1002.22
2023-05-08T04:47:57.305Z,1002.22
2023-05-08T04:48:57.253Z,1002.22
2023-05-08T04:49:57.750Z,1002.22
2023-05-08T04:50:57.236Z,1002.22
2023-05-08T04:51:57.211Z,1002.22
2023-05-08T04:52:57.211Z,1002.23
2023-05-08T04:53:57.188Z,1002.24
2023-05-08T04:54:57.216Z,1002.26
2023-05-08T04:55:57.154Z,1002.27
2023-05-08T04:56:57.178Z,1002.29
2023-05-08T04:57:57.156Z,1002.30
2023-05-08T04:58:57.143Z,1002.30
2023-05-08T04:59:57.114Z,1002.31
2023-05-08T05:00:57.136Z,1002.30
2023-05-08T05:01:57.189Z,1002.31
2023-05-08T05:02:57.217Z,1002.33
2023-05-08T05:03:57.157Z,1002.34
2023-05-08T05:04:57.094Z,1002.36
2023-05-08T05:05:57.059Z,1002.37
2023-05-08T05:06:57.065Z,1002.38
2023-05-08T05:07:57.051Z,1002.40
2023-05-08T05:08:57.050Z,1002.40
2023-05-08T05:09:57.041Z,1002.41
2023-05-08T05:10:57.072Z,1002.41
2023-05-08T05:11:58.133Z,1002.43
2023-05-08T05:12:57.026Z,1002.44
2023-05-08T05:13:56.972Z,1002.45
2023-05-08T05:14:56.993Z,1002.46
2023-05-08T05:15:57.017Z,1002.47
2023-05-08T05:16:56.977Z,1002.47
2023-05-08T05:17:57.085Z,1002.47
2023-05-08T05:18:56.950Z,1002.47
2023-05-08T05:19:56.907Z,1002.47
2023-05-08T05:20:56.942Z,1002.47
2023-05-08T05:21:56.880Z,1002.46
2023-05-08T05:22:56.893Z,1002.45
2023-05-08T05:23:56.893Z,1002.44
2023-05-08T05:24:56.884Z,1002.43
2023-05-08T05:25:56.855Z,1002.42
2023-05-08T05:26:56.920Z,1002.43
2023-05-08T05:27:56.852Z,1002.43
2023-05-08T05:28:56.842Z,1002.43
2023-05-08T05:29:56.818Z,1002.45
2023-05-08T05:30:56.816Z,1002.44
2023-05-08T05:31:56.897Z,1002.45
2023-05-08T05:32:57.010Z,1002.45
2023-05-08T05:33:56.766Z,1002.45
2023-05-08T05:34:56.832Z,1002.45
2023-05-08T05:35:56.744Z,1002.44
2023-05-08T05:36:56.749Z,1002.44
2023-05-08T05:37:56.791Z,1002.45
2023-05-08T05:38:56.817Z,1002.45
2023-05-08T05:39:56.746Z,1002.46
2023-05-08T05:40:56.843Z,1002.46
2023-05-08T05:41:56.805Z,1002.47
2023-05-08T05:42:56.746Z,1002.46
2023-05-08T05:43:56.708Z,1002.47
2023-05-08T05:44:56.679Z,1002.48
2023-05-08T05:45:56.642Z,1002.48
2023-05-08T05:46:56.813Z,1002.49
2023-05-08T05:47:56.664Z,1002.49
2023-05-08T05:48:56.618Z,1002.50
2023-05-08T05:49:56.595Z,1002.51
2023-05-08T05:50:56.633Z,1002.52
2023-05-08T05:51:56.569Z,1002.53
2023-05-08T05:52:56.594Z,1002.54
2023-05-08T05:53:56.579Z,1002.56
2023-05-08T05:54:56.559Z,1002.56
2023-05-08T05:55:56.536Z,1002.56
2023-05-08T05:57:00.049Z,1002.56
2023-05-08T05:57:56.513Z,1002.55
2023-05-08T05:58:56.526Z,1002.55
2023-05-08T05:59:56.488Z,1002.53
2023-05-08T06:00:56.500Z,1002.53
2023-05-08T06:01:56.546Z,1002.52
2023-05-08T06:02:56.751Z,1002.51
2023-05-08T06:03:56.509Z,1002.51
2023-05-08T06:04:56.466Z,1002.51
2023-05-08T06:05:56.677Z,1002.51
2023-05-08T06:06:56.484Z,1002.52
2023-05-08T06:07:56.406Z,1002.52
2023-05-08T06:08:56.408Z,1002.53
2023-05-08T06:09:56.390Z,1002.53
2023-05-08T06:10:56.421Z,1002.53
2023-05-08T06:11:56.360Z,1002.54
2023-05-08T06:12:56.440Z,1002.55
2023-05-08T06:13:56.340Z,1002.55
2023-05-08T06:14:56.359Z,1002.56
2023-05-08T06:15:56.345Z,1002.57
2023-05-08T06:16:56.369Z,1002.57
2023-05-08T06:17:56.362Z,1002.57
2023-05-08T06:18:56.330Z,1002.57
2023-05-08T06:19:56.276Z,1002.58
2023-05-08T06:20:56.295Z,1002.57
2023-05-08T06:21:56.251Z,1002.57
2023-05-08T06:22:56.299Z,1002.56
2023-05-08T06:23:56.231Z,1002.55
2023-05-08T06:24:56.268Z,1002.54
2023-05-08T06:25:56.246Z,1002.53
2023-05-08T06:26:56.242Z,1002.52
2023-05-08T06:27:56.190Z,1002.51
2023-05-08T06:28:56.212Z,1002.50
2023-05-08T06:29:56.197Z,1002.48
2023-05-08T06:30:56.249Z,1002.49
2023-05-08T06:31:56.152Z,1002.49
2023-05-08T06:32:56.245Z,1002.51
2023-05-08T06:33:56.131Z,1002.51
2023-05-08T06:34:56.146Z,1002.53
2023-05-08T06:37:05.531Z,1002.55
2023-05-08T06:38:13.905Z,1002.55
2023-05-08T06:39:06.496Z,1002.55
2023-05-08T06:42:33.289Z,1002.52
2023-05-08T06:43:48.161Z,1002.48
2023-05-08T06:44:49.279Z,1002.47
2023-05-08T06:45:49.101Z,1002.46
2023-05-08T06:46:49.184Z,1002.47
2023-05-08T06:47:49.119Z,1002.48
2023-05-08T06:48:49.134Z,1002.49
2023-05-08T06:49:49.056Z,1002.50
2023-05-08T06:50:49.087Z,1002.50
2023-05-08T06:51:49.044Z,1002.51
2023-05-08T06:52:49.077Z,1002.51
2023-05-08T06:53:49.115Z,1002.51
2023-05-08T06:54:49.037Z,1002.52
2023-05-08T06:55:49.000Z,1002.51
2023-05-08T06:56:49.001Z,1002.51
2023-05-08T06:57:48.989Z,1002.51
2023-05-08T06:58:57.066Z,1002.52
2023-05-08T06:59:48.954Z,1002.52
2023-05-08T07:00:49.000Z,1002.51
2023-05-08T07:01:49.003Z,1002.50
2023-05-08T07:02:49.016Z,1002.49
2023-05-08T07:03:48.918Z,1002.49
2023-05-08T07:04:49.126Z,1002.49
2023-05-08T07:05:48.891Z,1002.48
2023-05-08T07:06:48.945Z,1002.48
2023-05-08T07:07:48.868Z,1002.48
2023-05-08T07:08:48.878Z,1002.48
2023-05-08T07:09:48.854Z,1002.48
2023-05-08T07:10:48.880Z,1002.48
2023-05-08T07:11:48.865Z,1002.50
2023-05-08T07:12:48.862Z,1002.50
2023-05-08T07:13:48.823Z,1002.50
2023-05-08T07:14:48.830Z,1002.50
2023-05-08T07:15:48.816Z,1002.50
2023-05-08T07:16:48.837Z,1002.50
2023-05-08T07:17:48.839Z,1002.48
2023-05-08T07:18:48.774Z,1002.48
2023-05-08T07:19:48.734Z,1002.47
2023-05-08T07:20:48.757Z,1002.45
2023-05-08T07:21:48.786Z,1002.46
2023-05-08T07:22:48.742Z,1002.47
2023-05-08T07:23:49.192Z,1002.47
2023-05-08T07:24:48.721Z,1002.46
2023-05-08T07:25:48.706Z,1002.47
2023-05-08T07:26:48.702Z,1002.48
2023-05-08T07:27:48.696Z,1002.49
2023-05-08T07:28:48.705Z,1002.49
2023-05-08T07:29:48.642Z,1002.50
2023-05-08T07:30:48.668Z,1002.51
2023-05-08T07:31:48.684Z,1002.50
2023-05-08T07:32:48.729Z,1002.51
2023-05-08T07:33:48.601Z,1002.50
2023-05-08T07:34:48.627Z,1002.50
2023-05-08T07:35:48.567Z,1002.49
2023-05-08T07:36:48.611Z,1002.50
2023-05-08T07:37:48.574Z,1002.49
2023-05-08T07:38:48.578Z,1002.50
2023-05-08T07:39:48.532Z,1002.49
2023-05-08T07:40:48.531Z,1002.48
2023-05-08T07:41:49.919Z,1002.49
2023-05-08T07:42:48.531Z,1002.48
2023-05-08T07:43:48.485Z,1002.46
2023-05-08T07:44:54.750Z,1002.47
2023-05-08T07:45:48.471Z,1002.47
2023-05-08T07:46:48.564Z,1002.47
2023-05-08T07:47:48.494Z,1002.46
2023-05-08T07:48:48.449Z,1002.47
2023-05-08T07:49:48.415Z,1002.47
2023-05-08T07:50:48.465Z,1002.47
2023-05-08T07:51:48.396Z,1002.46
2023-05-08T07:52:50.148Z,1002.46
2023-05-08T07:53:48.434Z,1002.46
2023-05-08T07:54:48.430Z,1002.46
2023-05-08T07:55:48.340Z,1002.46
2023-05-08T07:56:48.376Z,1002.45
2023-05-08T07:57:48.363Z,1002.45
2023-05-08T07:58:48.372Z,1002.44
2023-05-08T07:59:48.315Z,1002.45
2023-05-08T08:00:48.350Z,1002.46
2023-05-08T08:01:48.321Z,1002.46
2023-05-08T08:02:48.500Z,1002.47
2023-05-08T08:03:48.385Z,1002.47
2023-05-08T08:04:48.279Z,1002.48
2023-05-08T08:05:48.302Z,1002.48
2023-05-08T08:06:48.263Z,1002.48
2023-05-08T08:07:48.269Z,1002.47
2023-05-08T08:08:48.244Z,1002.47
2023-05-08T08:09:48.259Z,1002.47
2023-05-08T08:10:48.206Z,1002.47
2023-05-08T08:11:48.221Z,1002.47
2023-05-08T08:12:48.237Z,1002.46
2023-05-08T08:13:48.169Z,1002.46
2023-05-08T08:14:48.191Z,1002.45
2023-05-08T08:15:48.353Z,1002.45
2023-05-08T08:16:48.219Z,1002.45
2023-05-08T08:17:48.163Z,1002.45
2023-05-08T08:18:48.142Z,1002.45
2023-05-08T08:19:48.121Z,1002.45
2023-05-08T08:20:48.119Z,1002.46
2023-05-08T08:21:48.074Z,1002.46
2023-05-08T08:22:48.103Z,1002.46
2023-05-08T08:23:48.066Z,1002.48
2023-05-08T08:24:48.117Z,1002.48
2023-05-08T08:25:48.080Z,1002.49
2023-05-08T08:26:48.149Z,1002.49
2023-05-08T08:27:48.013Z,1002.50
2023-05-08T08:28:48.034Z,1002.51
2023-05-08T08:29:48.048Z,1002.51
2023-05-08T08:30:48.031Z,1002.52
2023-05-08T08:31:48.109Z,1002.52
2023-05-08T08:32:47.981Z,1002.52
2023-05-08T08:33:47.982Z,1002.52
2023-05-08T08:34:47.937Z,1002.52
2023-05-08T08:35:47.962Z,1002.52
2023-05-08T08:36:47.947Z,1002.52
2023-05-08T08:37:47.936Z,1002.52
2023-05-08T08:38:47.898Z,1002.53
2023-05-08T08:39:47.902Z,1002.52
2023-05-08T08:40:47.881Z,1002.54
2023-05-08T08:41:47.932Z,1002.55
2023-05-08T08:42:47.851Z,1002.54
2023-05-08T08:43:47.872Z,1002.55
2023-05-08T08:44:47.873Z,1002.56
2023-05-08T08:45:47.840Z,1002.58
2023-05-08T08:46:47.915Z,1002.57
2023-05-08T08:47:47.901Z,1002.58
2023-05-08T08:48:47.813Z,1002.59
2023-05-08T08:49:47.835Z,1002.58
2023-05-08T08:50:47.777Z,1002.59
2023-05-08T08:51:47.788Z,1002.60
2023-05-08T08:52:47.750Z,1002.60
2023-05-08T08:53:47.765Z,1002.61
2023-05-08T08:54:47.760Z,1002.62
2023-05-08T08:55:47.745Z,1002.62
2023-05-08T08:56:47.713Z,1002.62
2023-05-08T08:57:47.719Z,1002.61
2023-05-08T08:58:47.723Z,1002.62
2023-05-08T08:59:47.695Z,1002.61
2023-05-08T09:00:47.686Z,1002.61
2023-05-08T09:01:48.070Z,1002.62
2023-05-08T09:02:47.706Z,1002.62
2023-05-08T09:03:49.759Z,1002.62
2023-05-08T09:04:48.378Z,1002.62
2023-05-08T09:05:47.635Z,1002.61
2023-05-08T09:06:47.609Z,1002.62
2023-05-08T09:07:47.608Z,1002.63
2023-05-08T09:08:47.619Z,1002.65
2023-05-08T09:09:47.591Z,1002.65
2023-05-08T09:10:47.556Z,1002.66
2023-05-08T09:11:47.576Z,1002.65
2023-05-08T09:12:47.558Z,1002.65
2023-05-08T09:13:47.585Z,1002.65
2023-05-08T09:14:47.564Z,1002.65
2023-05-08T09:15:47.552Z,1002.65
2023-05-08T09:16:47.616Z,1002.64
2023-05-08T09:17:47.545Z,1002.64
2023-05-08T09:18:47.527Z,1002.63
2023-05-08T09:19:47.524Z,1002.61
2023-05-08T09:20:47.457Z,1002.58
2023-05-08T09:21:47.481Z,1002.57
2023-05-08T09:22:47.450Z,1002.55
2023-05-08T09:23:47.457Z,1002.53
2023-05-08T09:24:47.457Z,1002.52
2023-05-08T09:25:47.438Z,1002.52
2023-05-08T09:26:47.384Z,1002.50
2023-05-08T09:27:47.428Z,1002.49
2023-05-08T09:28:47.371Z,1002.48
2023-05-08T09:29:47.379Z,1002.48
2023-05-08T09:30:47.384Z,1002.47
2023-05-08T09:31:47.436Z,1002.46
2023-05-08T09:32:47.391Z,1002.46
2023-05-08T09:33:47.333Z,1002.45
2023-05-08T09:34:47.311Z,1002.46
2023-05-08T09:35:47.327Z,1002.45
2023-05-08T09:36:47.318Z,1002.44
2023-05-08T09:37:47.314Z,1002.44
2023-05-08T09:38:47.264Z,1002.43
2023-05-08T09:39:47.288Z,1002.43
2023-05-08T09:40:47.250Z,1002.43
2023-05-08T09:41:47.517Z,1002.42
2023-05-08T09:42:47.275Z,1002.40
2023-05-08T09:43:47.238Z,1002.40
2023-05-08T09:44:47.245Z,1002.41
2023-05-08T09:45:47.250Z,1002.40
2023-05-08T09:46:47.190Z,1002.40
2023-05-08T09:47:47.225Z,1002.37
2023-05-08T09:48:47.144Z,1002.37
2023-05-08T09:49:47.194Z,1002.36
2023-05-08T09:50:47.184Z,1002.37
2023-05-08T09:51:47.210Z,1002.39
2023-05-08T09:52:47.136Z,1002.38
2023-05-08T09:53:47.433Z,1002.37
2023-05-08T09:54:47.086Z,1002.36
2023-05-08T09:55:47.095Z,1002.37
2023-05-08T09:56:47.502Z,1002.40
2023-05-08T09:57:47.087Z,1002.37
2023-05-08T09:58:47.898Z,1002.35
2023-05-08T09:59:47.050Z,1002.37
2023-05-08T10:00:47.047Z,1002.34
2023-05-08T10:01:47.048Z,1002.35
2023-05-08T10:02:47.032Z,1002.36
2023-05-08T10:03:47.123Z,1002.38
2023-05-08T10:04:47.108Z,1002.38
2023-05-08T10:05:47.015Z,1002.36
2023-05-08T10:06:46.964Z,1002.38
2023-05-08T10:07:46.977Z,1002.37
2023-05-08T10:08:46.977Z,1002.38
2023-05-08T10:09:50.624Z,1002.37
2023-05-08T10:10:46.926Z,1002.36
2023-05-08T10:11:46.932Z,1002.35
2023-05-08T10:12:46.942Z,1002.31
2023-05-08T10:13:46.956Z,1002.32
2023-05-08T10:14:47.110Z,1002.32
2023-05-08T10:15:46.892Z,1002.30
2023-05-08T10:16:46.914Z,1002.29
2023-05-08T10:17:46.956Z,1002.28
2023-05-08T10:18:46.872Z,1002.27
2023-05-08T10:19:46.863Z,1002.27
2023-05-08T10:20:46.821Z,1002.25
2023-05-08T10:21:46.855Z,1002.21
2023-05-08T10:22:46.792Z,1002.24
2023-05-08T10:23:46.813Z,1002.26
2023-05-08T10:24:46.797Z,1002.24
2023-05-08T10:25:46.783Z,1002.25
2023-05-08T10:26:57.386Z,1002.27
2023-05-08T10:27:46.772Z,1002.26
2023-05-08T10:28:46.733Z,1002.27
2023-05-08T10:29:46.756Z,1002.29
2023-05-08T10:30:46.723Z,1002.30
2023-05-08T10:31:46.751Z,1002.29
2023-05-08T10:32:46.729Z,1002.28
2023-05-08T10:33:46.723Z,1002.28
2023-05-08T10:34:46.667Z,1002.26
2023-05-08T10:35:46.690Z,1002.28
2023-05-08T10:36:46.664Z,1002.26
2023-05-08T10:37:46.656Z,1002.25
2023-05-08T10:38:46.619Z,1002.25
2023-05-08T10:39:46.642Z,1002.24
2023-05-08T10:40:46.616Z,1002.24
2023-05-08T10:41:46.706Z,1002.24
2023-05-08T10:42:46.597Z,1002.23
2023-05-08T10:43:46.616Z,1002.22
2023-05-08T10:44:46.562Z,1002.20
2023-05-08T10:45:47.126Z,1002.20
2023-05-08T10:46:46.593Z,1002.19
2023-05-08T10:47:48.549Z,1002.17
2023-05-08T10:48:46.528Z,1002.15
2023-05-08T10:49:46.527Z,1002.16
2023-05-08T10:50:46.572Z,1002.14
2023-05-08T10:51:46.513Z,1002.12
2023-05-08T10:52:46.476Z,1002.11
2023-05-08T10:53:46.492Z,1002.11
2023-05-08T10:54:46.464Z,1002.09
2023-05-08T10:55:46.475Z,1002.11
2023-05-08T10:56:46.469Z,1002.11
2023-05-08T10:57:46.450Z,1002.12
2023-05-08T10:58:46.425Z,1002.09
2023-05-08T10:59:46.432Z,1002.08
2023-05-08T11:00:46.395Z,1002.09
2023-05-08T11:01:46.479Z,1002.08
2023-05-08T11:02:46.452Z,1002.06
2023-05-08T11:03:46.634Z,1002.04
2023-05-08T11:04:46.437Z,1002.01
2023-05-08T11:05:46.421Z,1002.00
2023-05-08T11:06:46.335Z,1002.00
2023-05-08T11:07:46.355Z,1002.00
2023-05-08T11:08:46.308Z,1001.99
2023-05-08T11:09:46.331Z,1001.93
2023-05-08T11:10:46.285Z,1001.97
2023-05-08T11:11:46.294Z,1001.96
2023-05-08T11:12:46.324Z,1001.97
2023-05-08T11:13:46.272Z,1001.98
2023-05-08T11:14:46.252Z,1001.97
2023-05-08T11:15:46.291Z,1001.98
2023-05-08T11:16:46.318Z,1001.96
2023-05-08T11:17:46.255Z,1001.96
2023-05-08T11:18:49.429Z,1001.94
2023-05-08T11:19:46.209Z,1001.94
2023-05-08T11:20:46.175Z,1001.92
2023-05-08T11:21:46.195Z,1001.93
2023-05-08T11:22:46.149Z,1001.90
2023-05-08T11:23:46.191Z,1001.91
2023-05-08T11:24:46.127Z,1001.90
2023-05-08T11:25:46.168Z,1001.90
2023-05-08T11:26:46.093Z,1001.90
2023-05-08T11:27:46.143Z,1001.89
2023-05-08T11:28:46.086Z,1001.90
2023-05-08T11:29:46.106Z,1001.87
2023-05-08T11:30:46.070Z,1001.82
2023-05-08T11:31:46.104Z,1001.87
2023-05-08T11:32:46.369Z,1001.81
2023-05-08T11:33:46.046Z,1001.79
2023-05-08T11:34:46.055Z,1001.80
2023-05-08T11:35:46.039Z,1001.83
2023-05-08T11:36:46.091Z,1001.84
2023-05-08T11:37:46.013Z,1001.84
2023-05-08T11:38:45.970Z,1001.83
2023-05-08T11:39:46.094Z,1001.79
2023-05-08T11:40:46.021Z,1001.81
2023-05-08T11:41:45.985Z,1001.80
2023-05-08T11:42:45.939Z,1001.81
2023-05-08T11:43:45.952Z,1001.80
2023-05-08T11:44:45.938Z,1001.80
2023-05-08T11:45:45.950Z,1001.76
2023-05-08T11:46:45.926Z,1001.74
2023-05-08T11:47:45.987Z,1001.74
2023-05-08T11:48:45.868Z,1001.74
2023-05-08T11:49:45.916Z,1001.74
2023-05-08T11:50:45.846Z,1001.72
2023-05-08T11:51:45.890Z,1001.72
2023-05-08T11:52:45.851Z,1001.70
2023-05-08T11:53:45.850Z,1001.74
2023-05-08T11:54:45.843Z,1001.74
2023-05-08T11:55:45.821Z,1001.74
2023-05-08T11:56:47.706Z,1001.74
2023-05-08T11:57:45.803Z,1001.78
2023-05-08T11:58:45.772Z,1001.78
2023-05-08T11:59:45.801Z,1001.78
2023-05-08T12:00:45.783Z,1001.80
2023-05-08T12:01:53.492Z,1001.77
2023-05-08T12:02:45.834Z,1001.80
2023-05-08T12:03:45.953Z,1001.79
2023-05-08T12:04:45.776Z,1001.81
2023-05-08T12:05:45.717Z,1001.78
2023-05-08T12:06:45.686Z,1001.76
2023-05-08T12:07:45.708Z,1001.76
2023-05-08T12:08:45.671Z,1001.78